sensor_id;sensor_type;location;lat;lon;timestamp;P1;durP1;ratioP1;P2;durP2;ratioP2
6203;SDS011;3135;42.602;23.468;2022-11-13T00:00:31;12.37;;;5.50;;
6203;SDS011;3135;42.602;23.468;2022-11-13T00:02:57;11.52;;;4.80;;
6203;SDS011;3135;42.602;23.468;2022-11-13T00:05:22;14.00;;;6.07;;
6203;SDS011;3135;42.602;23.468;2022-11-13T00:07:47;11.93;;;5.43;;
6203;SDS011;3135;42.602;23.468;2022-11-13T00:10:13;12.43;;;5.63;;
6203;SDS011;3135;42.602;23.468;2022-11-13T00:12:39;12.60;;;5.73;;
6203;SDS011;3135;42.602;23.468;2022-11-13T00:15:04;10.40;;;5.10;;
6203;SDS011;3135;42.602;23.468;2022-11-13T00:17:30;10.10;;;4.95;;
6203;SDS011;3135;42.602;23.468;2022-11-13T00:19:55;13.03;;;5.70;;
6203;SDS011;3135;42.602;23.468;2022-11-13T00:22:21;10.07;;;5.47;;
6203;SDS011;3135;42.602;23.468;2022-11-13T00:24:46;11.00;;;5.03;;
6203;SDS011;3135;42.602;23.468;2022-11-13T00:27:12;9.90;;;4.87;;
6203;SDS011;3135;42.602;23.468;2022-11-13T00:29:37;8.87;;;4.77;;
6203;SDS011;3135;42.602;23.468;2022-11-13T00:32:03;10.33;;;5.37;;
6203;SDS011;3135;42.602;23.468;2022-11-13T00:34:28;14.63;;;5.80;;
6203;SDS011;3135;42.602;23.468;2022-11-13T00:36:54;13.90;;;6.47;;
6203;SDS011;3135;42.602;23.468;2022-11-13T00:39:19;11.02;;;5.38;;
6203;SDS011;3135;42.602;23.468;2022-11-13T00:41:45;14.00;;;6.30;;
6203;SDS011;3135;42.602;23.468;2022-11-13T00:44:10;12.85;;;5.22;;
6203;SDS011;3135;42.602;23.468;2022-11-13T00:46:36;11.20;;;5.47;;
6203;SDS011;3135;42.602;23.468;2022-11-13T00:49:01;10.33;;;5.20;;
6203;SDS011;3135;42.602;23.468;2022-11-13T00:51:28;12.68;;;5.55;;
6203;SDS011;3135;42.602;23.468;2022-11-13T00:53:53;10.50;;;5.47;;
6203;SDS011;3135;42.602;23.468;2022-11-13T00:56:19;12.43;;;4.93;;
6203;SDS011;3135;42.602;23.468;2022-11-13T00:58:44;12.57;;;5.13;;
6203;SDS011;3135;42.602;23.468;2022-11-13T01:01:13;10.47;;;4.90;;
6203;SDS011;3135;42.602;23.468;2022-11-13T01:03:41;15.75;;;6.00;;
6203;SDS011;3135;42.602;23.468;2022-11-13T01:06:14;16.33;;;6.40;;
6203;SDS011;3135;42.602;23.468;2022-11-13T01:08:43;15.20;;;5.90;;
6203;SDS011;3135;42.602;23.468;2022-11-13T01:11:09;12.20;;;5.80;;
6203;SDS011;3135;42.602;23.468;2022-11-13T01:13:37;11.27;;;5.83;;
6203;SDS011;3135;42.602;23.468;2022-11-13T01:16:04;14.75;;;6.60;;
6203;SDS011;3135;42.602;23.468;2022-11-13T01:18:31;15.85;;;6.70;;
6203;SDS011;3135;42.602;23.468;2022-11-13T01:21:01;13.87;;;6.07;;
6203;SDS011;3135;42.602;23.468;2022-11-13T01:23:35;16.93;;;6.80;;
6203;SDS011;3135;42.602;23.468;2022-11-13T01:26:14;14.70;;;6.53;;
6203;SDS011;3135;42.602;23.468;2022-11-13T01:28:44;14.65;;;6.00;;
6203;SDS011;3135;42.602;23.468;2022-11-13T01:31:12;14.15;;;6.60;;
6203;SDS011;3135;42.602;23.468;2022-11-13T01:33:40;13.00;;;5.32;;
6203;SDS011;3135;42.602;23.468;2022-11-13T01:36:09;13.43;;;6.10;;
6203;SDS011;3135;42.602;23.468;2022-11-13T01:38:37;14.90;;;6.80;;
6203;SDS011;3135;42.602;23.468;2022-11-13T01:41:03;16.60;;;6.57;;
6203;SDS011;3135;42.602;23.468;2022-11-13T01:43:31;17.23;;;7.60;;
6203;SDS011;3135;42.602;23.468;2022-11-13T01:48:39;14.13;;;6.30;;
6203;SDS011;3135;42.602;23.468;2022-11-13T01:51:09;14.73;;;6.80;;
6203;SDS011;3135;42.602;23.468;2022-11-13T01:53:37;12.93;;;6.13;;
6203;SDS011;3135;42.602;23.468;2022-11-13T01:56:05;11.98;;;5.70;;
6203;SDS011;3135;42.602;23.468;2022-11-13T01:58:31;13.93;;;6.13;;
6203;SDS011;3135;42.602;23.468;2022-11-13T02:00:57;10.60;;;5.80;;
6203;SDS011;3135;42.602;23.468;2022-11-13T02:03:22;9.70;;;5.00;;
6203;SDS011;3135;42.602;23.468;2022-11-13T02:05:47;11.67;;;5.73;;
6203;SDS011;3135;42.602;23.468;2022-11-13T02:08:13;10.30;;;5.37;;
6203;SDS011;3135;42.602;23.468;2022-11-13T02:10:38;15.53;;;6.40;;
6203;SDS011;3135;42.602;23.468;2022-11-13T02:13:04;14.00;;;6.13;;
6203;SDS011;3135;42.602;23.468;2022-11-13T02:15:30;14.25;;;6.25;;
6203;SDS011;3135;42.602;23.468;2022-11-13T02:17:58;11.60;;;6.13;;
6203;SDS011;3135;42.602;23.468;2022-11-13T02:26:22;12.38;;;5.95;;
6203;SDS011;3135;42.602;23.468;2022-11-13T02:28:50;10.52;;;5.43;;
6203;SDS011;3135;42.602;23.468;2022-11-13T02:31:16;11.97;;;5.77;;
6203;SDS011;3135;42.602;23.468;2022-11-13T02:33:41;13.02;;;6.05;;
6203;SDS011;3135;42.602;23.468;2022-11-13T02:36:07;14.32;;;6.82;;
6203;SDS011;3135;42.602;23.468;2022-11-13T02:38:34;11.73;;;4.78;;
6203;SDS011;3135;42.602;23.468;2022-11-13T02:41:01;9.90;;;5.40;;
6203;SDS011;3135;42.602;23.468;2022-11-13T02:43:27;13.57;;;5.20;;
6203;SDS011;3135;42.602;23.468;2022-11-13T02:45:52;12.93;;;5.88;;
6203;SDS011;3135;42.602;23.468;2022-11-13T02:48:18;11.43;;;5.30;;
6203;SDS011;3135;42.602;23.468;2022-11-13T02:50:44;13.43;;;5.43;;
6203;SDS011;3135;42.602;23.468;2022-11-13T02:53:09;9.87;;;5.07;;
6203;SDS011;3135;42.602;23.468;2022-11-13T02:55:35;11.57;;;5.80;;
6203;SDS011;3135;42.602;23.468;2022-11-13T02:58:00;13.13;;;6.00;;
6203;SDS011;3135;42.602;23.468;2022-11-13T03:00:26;13.13;;;5.88;;
6203;SDS011;3135;42.602;23.468;2022-11-13T03:02:51;12.85;;;6.15;;
6203;SDS011;3135;42.602;23.468;2022-11-13T03:05:17;15.10;;;6.33;;
6203;SDS011;3135;42.602;23.468;2022-11-13T03:07:42;14.37;;;6.70;;
6203;SDS011;3135;42.602;23.468;2022-11-13T03:10:08;9.60;;;5.30;;
6203;SDS011;3135;42.602;23.468;2022-11-13T03:12:35;12.38;;;5.60;;
6203;SDS011;3135;42.602;23.468;2022-11-13T03:15:01;10.70;;;5.40;;
6203;SDS011;3135;42.602;23.468;2022-11-13T03:17:29;9.25;;;5.47;;
6203;SDS011;3135;42.602;23.468;2022-11-13T03:19:55;12.10;;;5.87;;
6203;SDS011;3135;42.602;23.468;2022-11-13T03:22:20;10.97;;;5.77;;
6203;SDS011;3135;42.602;23.468;2022-11-13T03:24:46;17.33;;;7.37;;
6203;SDS011;3135;42.602;23.468;2022-11-13T03:27:11;13.75;;;6.10;;
6203;SDS011;3135;42.602;23.468;2022-11-13T03:29:37;12.05;;;6.00;;
6203;SDS011;3135;42.602;23.468;2022-11-13T03:32:02;11.10;;;5.60;;
6203;SDS011;3135;42.602;23.468;2022-11-13T03:34:28;12.57;;;6.13;;
6203;SDS011;3135;42.602;23.468;2022-11-13T03:36:53;12.33;;;6.60;;
6203;SDS011;3135;42.602;23.468;2022-11-13T03:39:18;12.83;;;6.20;;
6203;SDS011;3135;42.602;23.468;2022-11-13T03:41:44;14.17;;;6.70;;
6203;SDS011;3135;42.602;23.468;2022-11-13T03:44:09;10.73;;;5.57;;
6203;SDS011;3135;42.602;23.468;2022-11-13T03:46:35;14.33;;;6.90;;
6203;SDS011;3135;42.602;23.468;2022-11-13T03:49:00;14.03;;;6.53;;
6203;SDS011;3135;42.602;23.468;2022-11-13T03:51:26;13.27;;;6.80;;
6203;SDS011;3135;42.602;23.468;2022-11-13T03:53:51;11.60;;;6.30;;
6203;SDS011;3135;42.602;23.468;2022-11-13T03:56:17;14.40;;;6.93;;
6203;SDS011;3135;42.602;23.468;2022-11-13T03:58:42;13.87;;;6.70;;
6203;SDS011;3135;42.602;23.468;2022-11-13T04:01:07;17.13;;;7.13;;
6203;SDS011;3135;42.602;23.468;2022-11-13T04:03:33;14.77;;;7.40;;
6203;SDS011;3135;42.602;23.468;2022-11-13T04:05:59;14.60;;;7.03;;
6203;SDS011;3135;42.602;23.468;2022-11-13T04:08:24;13.60;;;7.00;;
6203;SDS011;3135;42.602;23.468;2022-11-13T04:10:50;13.77;;;7.43;;
6203;SDS011;3135;42.602;23.468;2022-11-13T04:13:15;14.77;;;7.40;;
6203;SDS011;3135;42.602;23.468;2022-11-13T04:15:41;19.13;;;7.75;;
6203;SDS011;3135;42.602;23.468;2022-11-13T04:18:06;17.17;;;7.93;;
6203;SDS011;3135;42.602;23.468;2022-11-13T04:20:32;18.30;;;7.73;;
6203;SDS011;3135;42.602;23.468;2022-11-13T04:22:57;17.60;;;8.53;;
6203;SDS011;3135;42.602;23.468;2022-11-13T04:25:23;18.93;;;8.67;;
6203;SDS011;3135;42.602;23.468;2022-11-13T04:27:50;17.75;;;8.60;;
6203;SDS011;3135;42.602;23.468;2022-11-13T04:30:16;20.80;;;8.57;;
6203;SDS011;3135;42.602;23.468;2022-11-13T04:32:42;25.42;;;11.32;;
6203;SDS011;3135;42.602;23.468;2022-11-13T04:35:08;26.50;;;11.60;;
6203;SDS011;3135;42.602;23.468;2022-11-13T04:37:33;19.50;;;8.93;;
6203;SDS011;3135;42.602;23.468;2022-11-13T04:39:59;19.05;;;9.55;;
6203;SDS011;3135;42.602;23.468;2022-11-13T04:42:24;22.08;;;10.48;;
6203;SDS011;3135;42.602;23.468;2022-11-13T04:45:08;31.50;;;12.73;;
6203;SDS011;3135;42.602;23.468;2022-11-13T04:47:34;26.00;;;10.80;;
6203;SDS011;3135;42.602;23.468;2022-11-13T04:49:59;33.23;;;13.13;;
6203;SDS011;3135;42.602;23.468;2022-11-13T04:52:25;32.57;;;13.20;;
6203;SDS011;3135;42.602;23.468;2022-11-13T04:54:52;34.42;;;13.30;;
6203;SDS011;3135;42.602;23.468;2022-11-13T04:57:18;26.90;;;11.50;;
6203;SDS011;3135;42.602;23.468;2022-11-13T04:59:43;25.10;;;10.80;;
6203;SDS011;3135;42.602;23.468;2022-11-13T05:02:09;28.15;;;11.27;;
6203;SDS011;3135;42.602;23.468;2022-11-13T05:04:34;29.13;;;11.50;;
6203;SDS011;3135;42.602;23.468;2022-11-13T05:07:00;24.25;;;10.73;;
6203;SDS011;3135;42.602;23.468;2022-11-13T05:09:25;25.33;;;11.25;;
6203;SDS011;3135;42.602;23.468;2022-11-13T05:11:50;28.77;;;12.13;;
6203;SDS011;3135;42.602;23.468;2022-11-13T05:14:16;26.05;;;10.98;;
6203;SDS011;3135;42.602;23.468;2022-11-13T05:16:41;25.77;;;10.98;;
6203;SDS011;3135;42.602;23.468;2022-11-13T05:19:07;30.13;;;11.32;;
6203;SDS011;3135;42.602;23.468;2022-11-13T05:21:33;24.40;;;10.50;;
6203;SDS011;3135;42.602;23.468;2022-11-13T05:23:59;24.07;;;10.20;;
6203;SDS011;3135;42.602;23.468;2022-11-13T05:26:25;25.73;;;10.00;;
6203;SDS011;3135;42.602;23.468;2022-11-13T05:28:51;29.85;;;11.32;;
6203;SDS011;3135;42.602;23.468;2022-11-13T05:31:17;36.90;;;13.80;;
6203;SDS011;3135;42.602;23.468;2022-11-13T05:33:43;38.03;;;13.40;;
6203;SDS011;3135;42.602;23.468;2022-11-13T05:36:10;29.95;;;11.90;;
6203;SDS011;3135;42.602;23.468;2022-11-13T05:38:38;46.83;;;15.13;;
6203;SDS011;3135;42.602;23.468;2022-11-13T05:41:04;38.40;;;14.07;;
6203;SDS011;3135;42.602;23.468;2022-11-13T05:43:32;33.92;;;12.65;;
6203;SDS011;3135;42.602;23.468;2022-11-13T05:46:06;24.93;;;10.87;;
6203;SDS011;3135;42.602;23.468;2022-11-13T05:48:33;22.35;;;9.73;;
6203;SDS011;3135;42.602;23.468;2022-11-13T05:51:00;25.77;;;10.40;;
6203;SDS011;3135;42.602;23.468;2022-11-13T05:53:31;23.23;;;9.10;;
6203;SDS011;3135;42.602;23.468;2022-11-13T05:56:00;35.42;;;13.95;;
6203;SDS011;3135;42.602;23.468;2022-11-13T05:58:27;38.63;;;16.13;;
6203;SDS011;3135;42.602;23.468;2022-11-13T06:00:53;24.98;;;9.73;;
6203;SDS011;3135;42.602;23.468;2022-11-13T06:03:32;25.45;;;9.40;;
6203;SDS011;3135;42.602;23.468;2022-11-13T06:05:57;27.90;;;10.83;;
6203;SDS011;3135;42.602;23.468;2022-11-13T06:08:23;35.20;;;14.18;;
6203;SDS011;3135;42.602;23.468;2022-11-13T06:10:49;30.03;;;12.13;;
6203;SDS011;3135;42.602;23.468;2022-11-13T06:13:14;26.17;;;11.30;;
6203;SDS011;3135;42.602;23.468;2022-11-13T06:15:40;25.67;;;11.07;;
6203;SDS011;3135;42.602;23.468;2022-11-13T06:18:05;27.13;;;11.07;;
6203;SDS011;3135;42.602;23.468;2022-11-13T06:20:33;24.90;;;9.90;;
6203;SDS011;3135;42.602;23.468;2022-11-13T06:22:59;21.10;;;8.90;;
6203;SDS011;3135;42.602;23.468;2022-11-13T06:25:25;24.93;;;10.30;;
6203;SDS011;3135;42.602;23.468;2022-11-13T06:27:51;22.13;;;9.65;;
6203;SDS011;3135;42.602;23.468;2022-11-13T06:30:17;22.73;;;9.73;;
6203;SDS011;3135;42.602;23.468;2022-11-13T06:32:43;26.42;;;11.45;;
6203;SDS011;3135;42.602;23.468;2022-11-13T06:35:08;21.70;;;8.87;;
6203;SDS011;3135;42.602;23.468;2022-11-13T06:37:34;27.50;;;10.93;;
6203;SDS011;3135;42.602;23.468;2022-11-13T06:39:59;27.43;;;11.33;;
6203;SDS011;3135;42.602;23.468;2022-11-13T06:42:25;27.07;;;10.13;;
6203;SDS011;3135;42.602;23.468;2022-11-13T06:44:51;24.00;;;11.38;;
6203;SDS011;3135;42.602;23.468;2022-11-13T06:47:16;32.97;;;12.80;;
6203;SDS011;3135;42.602;23.468;2022-11-13T06:49:41;27.00;;;11.43;;
6203;SDS011;3135;42.602;23.468;2022-11-13T06:52:07;26.07;;;9.37;;
6203;SDS011;3135;42.602;23.468;2022-11-13T06:54:32;29.47;;;11.47;;
6203;SDS011;3135;42.602;23.468;2022-11-13T06:56:58;28.93;;;10.83;;
6203;SDS011;3135;42.602;23.468;2022-11-13T06:59:23;27.40;;;11.27;;
6203;SDS011;3135;42.602;23.468;2022-11-13T07:01:49;28.37;;;11.67;;
6203;SDS011;3135;42.602;23.468;2022-11-13T07:04:15;22.70;;;9.15;;
6203;SDS011;3135;42.602;23.468;2022-11-13T07:06:40;28.90;;;13.90;;
6203;SDS011;3135;42.602;23.468;2022-11-13T07:09:06;30.60;;;11.60;;
6203;SDS011;3135;42.602;23.468;2022-11-13T07:11:31;31.00;;;13.87;;
6203;SDS011;3135;42.602;23.468;2022-11-13T07:13:57;26.73;;;11.47;;
6203;SDS011;3135;42.602;23.468;2022-11-13T07:16:22;74.70;;;31.77;;
6203;SDS011;3135;42.602;23.468;2022-11-13T07:18:48;28.23;;;11.63;;
6203;SDS011;3135;42.602;23.468;2022-11-13T07:21:15;21.17;;;9.85;;
6203;SDS011;3135;42.602;23.468;2022-11-13T07:23:40;20.90;;;9.43;;
6203;SDS011;3135;42.602;23.468;2022-11-13T07:26:08;22.27;;;10.85;;
6203;SDS011;3135;42.602;23.468;2022-11-13T07:28:36;27.90;;;12.10;;
6203;SDS011;3135;42.602;23.468;2022-11-13T07:31:01;27.45;;;12.77;;
6203;SDS011;3135;42.602;23.468;2022-11-13T07:33:27;24.47;;;10.57;;
6203;SDS011;3135;42.602;23.468;2022-11-13T07:35:53;21.20;;;9.87;;
6203;SDS011;3135;42.602;23.468;2022-11-13T07:38:20;25.13;;;11.15;;
6203;SDS011;3135;42.602;23.468;2022-11-13T07:40:46;43.07;;;16.80;;
6203;SDS011;3135;42.602;23.468;2022-11-13T07:43:11;103.30;;;33.87;;
6203;SDS011;3135;42.602;23.468;2022-11-13T07:45:36;26.90;;;11.80;;
6203;SDS011;3135;42.602;23.468;2022-11-13T07:48:02;29.93;;;13.27;;
6203;SDS011;3135;42.602;23.468;2022-11-13T07:50:30;34.75;;;13.20;;
6203;SDS011;3135;42.602;23.468;2022-11-13T07:53:00;30.73;;;12.80;;
6203;SDS011;3135;42.602;23.468;2022-11-13T07:55:28;31.90;;;13.38;;
6203;SDS011;3135;42.602;23.468;2022-11-13T07:57:57;27.75;;;12.23;;
6203;SDS011;3135;42.602;23.468;2022-11-13T08:00:24;38.22;;;16.10;;
6203;SDS011;3135;42.602;23.468;2022-11-13T08:02:51;33.45;;;14.63;;
6203;SDS011;3135;42.602;23.468;2022-11-13T08:05:16;36.95;;;16.20;;
6203;SDS011;3135;42.602;23.468;2022-11-13T08:07:45;25.42;;;12.52;;
6203;SDS011;3135;42.602;23.468;2022-11-13T08:10:11;47.22;;;18.67;;
6203;SDS011;3135;42.602;23.468;2022-11-13T08:12:36;43.80;;;18.02;;
6203;SDS011;3135;42.602;23.468;2022-11-13T08:15:02;42.63;;;18.02;;
6203;SDS011;3135;42.602;23.468;2022-11-13T08:17:28;38.47;;;15.85;;
6203;SDS011;3135;42.602;23.468;2022-11-13T08:19:54;49.47;;;20.47;;
6203;SDS011;3135;42.602;23.468;2022-11-13T08:22:19;43.60;;;17.20;;
6203;SDS011;3135;42.602;23.468;2022-11-13T08:24:44;40.63;;;17.80;;
6203;SDS011;3135;42.602;23.468;2022-11-13T08:27:10;30.97;;;13.93;;
6203;SDS011;3135;42.602;23.468;2022-11-13T08:29:35;36.67;;;17.30;;
6203;SDS011;3135;42.602;23.468;2022-11-13T08:32:02;40.25;;;18.15;;
6203;SDS011;3135;42.602;23.468;2022-11-13T08:34:28;37.80;;;15.52;;
6203;SDS011;3135;42.602;23.468;2022-11-13T08:36:54;46.13;;;19.00;;
6203;SDS011;3135;42.602;23.468;2022-11-13T08:39:19;38.47;;;17.37;;
6203;SDS011;3135;42.602;23.468;2022-11-13T08:41:44;47.00;;;18.83;;
6203;SDS011;3135;42.602;23.468;2022-11-13T08:44:10;50.53;;;21.07;;
6203;SDS011;3135;42.602;23.468;2022-11-13T08:46:36;38.35;;;15.60;;
6203;SDS011;3135;42.602;23.468;2022-11-13T08:49:02;39.05;;;16.48;;
6203;SDS011;3135;42.602;23.468;2022-11-13T08:51:28;38.40;;;16.75;;
6203;SDS011;3135;42.602;23.468;2022-11-13T08:53:53;47.07;;;17.83;;
6203;SDS011;3135;42.602;23.468;2022-11-13T08:56:19;43.03;;;17.97;;
6203;SDS011;3135;42.602;23.468;2022-11-13T08:58:44;35.43;;;14.80;;
6203;SDS011;3135;42.602;23.468;2022-11-13T09:01:09;36.43;;;15.87;;
6203;SDS011;3135;42.602;23.468;2022-11-13T09:03:35;38.63;;;15.70;;
6203;SDS011;3135;42.602;23.468;2022-11-13T09:06:07;40.00;;;16.63;;
6203;SDS011;3135;42.602;23.468;2022-11-13T09:08:33;29.30;;;13.63;;
6203;SDS011;3135;42.602;23.468;2022-11-13T09:11:02;31.13;;;12.07;;
6203;SDS011;3135;42.602;23.468;2022-11-13T09:13:29;45.45;;;18.13;;
6203;SDS011;3135;42.602;23.468;2022-11-13T09:15:59;37.83;;;15.48;;
6203;SDS011;3135;42.602;23.468;2022-11-13T09:18:26;36.05;;;15.77;;
6203;SDS011;3135;42.602;23.468;2022-11-13T09:20:52;39.65;;;16.83;;
6203;SDS011;3135;42.602;23.468;2022-11-13T09:23:17;34.42;;;14.82;;
6203;SDS011;3135;42.602;23.468;2022-11-13T09:25:43;25.80;;;12.03;;
6203;SDS011;3135;42.602;23.468;2022-11-13T09:28:08;34.33;;;14.17;;
6203;SDS011;3135;42.602;23.468;2022-11-13T09:30:36;31.00;;;14.17;;
6203;SDS011;3135;42.602;23.468;2022-11-13T09:33:03;32.55;;;13.45;;
6203;SDS011;3135;42.602;23.468;2022-11-13T09:35:29;38.60;;;15.82;;
6203;SDS011;3135;42.602;23.468;2022-11-13T09:38:31;47.13;;;19.70;;
6203;SDS011;3135;42.602;23.468;2022-11-13T09:40:54;53.75;;;22.02;;
6203;SDS011;3135;42.602;23.468;2022-11-13T09:43:35;31.13;;;13.80;;
6203;SDS011;3135;42.602;23.468;2022-11-13T09:46:07;36.30;;;17.10;;
6203;SDS011;3135;42.602;23.468;2022-11-13T09:48:55;37.85;;;17.98;;
6203;SDS011;3135;42.602;23.468;2022-11-13T09:51:32;34.65;;;14.23;;
6203;SDS011;3135;42.602;23.468;2022-11-13T09:54:02;31.40;;;14.30;;
6203;SDS011;3135;42.602;23.468;2022-11-13T09:56:38;37.20;;;16.17;;
6203;SDS011;3135;42.602;23.468;2022-11-13T10:04:36;34.50;;;14.77;;
6203;SDS011;3135;42.602;23.468;2022-11-13T10:12:06;47.67;;;20.87;;
6203;SDS011;3135;42.602;23.468;2022-11-13T10:14:34;28.30;;;12.73;;
6203;SDS011;3135;42.602;23.468;2022-11-13T10:17:05;31.52;;;14.43;;
6203;SDS011;3135;42.602;23.468;2022-11-13T10:22:40;39.07;;;17.00;;
6203;SDS011;3135;42.602;23.468;2022-11-13T10:25:19;32.08;;;13.15;;
6203;SDS011;3135;42.602;23.468;2022-11-13T10:27:52;30.60;;;12.90;;
6203;SDS011;3135;42.602;23.468;2022-11-13T10:30:22;27.13;;;11.97;;
6203;SDS011;3135;42.602;23.468;2022-11-13T10:32:47;32.20;;;12.88;;
6203;SDS011;3135;42.602;23.468;2022-11-13T10:38:06;29.98;;;12.77;;
6203;SDS011;3135;42.602;23.468;2022-11-13T10:40:38;29.20;;;11.73;;
6203;SDS011;3135;42.602;23.468;2022-11-13T10:43:05;32.28;;;13.52;;
6203;SDS011;3135;42.602;23.468;2022-11-13T10:45:39;31.17;;;13.33;;
6203;SDS011;3135;42.602;23.468;2022-11-13T10:48:17;31.42;;;13.30;;
6203;SDS011;3135;42.602;23.468;2022-11-13T10:50:58;31.98;;;14.25;;
6203;SDS011;3135;42.602;23.468;2022-11-13T10:53:26;39.67;;;16.27;;
6203;SDS011;3135;42.602;23.468;2022-11-13T10:55:58;34.75;;;13.73;;
6203;SDS011;3135;42.602;23.468;2022-11-13T10:58:23;36.53;;;15.25;;
6203;SDS011;3135;42.602;23.468;2022-11-13T11:00:49;31.50;;;13.20;;
6203;SDS011;3135;42.602;23.468;2022-11-13T11:03:20;33.28;;;13.45;;
6203;SDS011;3135;42.602;23.468;2022-11-13T11:06:02;31.97;;;13.67;;
6203;SDS011;3135;42.602;23.468;2022-11-13T11:08:35;35.35;;;14.40;;
6203;SDS011;3135;42.602;23.468;2022-11-13T11:11:05;33.60;;;14.30;;
6203;SDS011;3135;42.602;23.468;2022-11-13T11:14:03;36.38;;;15.63;;
6203;SDS011;3135;42.602;23.468;2022-11-13T11:16:47;40.53;;;15.83;;
6203;SDS011;3135;42.602;23.468;2022-11-13T11:19:14;37.17;;;14.23;;
6203;SDS011;3135;42.602;23.468;2022-11-13T11:21:42;40.83;;;15.00;;
6203;SDS011;3135;42.602;23.468;2022-11-13T11:24:18;42.05;;;16.25;;
6203;SDS011;3135;42.602;23.468;2022-11-13T11:26:52;45.47;;;16.70;;
6203;SDS011;3135;42.602;23.468;2022-11-13T11:29:42;40.73;;;15.33;;
6203;SDS011;3135;42.602;23.468;2022-11-13T11:32:26;37.97;;;15.13;;
6203;SDS011;3135;42.602;23.468;2022-11-13T11:35:04;28.45;;;12.48;;
6203;SDS011;3135;42.602;23.468;2022-11-13T11:37:57;25.73;;;10.75;;
6203;SDS011;3135;42.602;23.468;2022-11-13T11:40:39;24.83;;;10.60;;
6203;SDS011;3135;42.602;23.468;2022-11-13T11:43:11;22.75;;;10.50;;
6203;SDS011;3135;42.602;23.468;2022-11-13T11:45:45;25.95;;;10.77;;
6203;SDS011;3135;42.602;23.468;2022-11-13T11:48:15;26.67;;;11.60;;
6203;SDS011;3135;42.602;23.468;2022-11-13T11:56:50;27.55;;;11.85;;
6203;SDS011;3135;42.602;23.468;2022-11-13T12:15:39;21.73;;;10.30;;
6203;SDS011;3135;42.602;23.468;2022-11-13T12:34:59;22.58;;;10.27;;
6203;SDS011;3135;42.602;23.468;2022-11-13T12:40:05;20.58;;;9.52;;
6203;SDS011;3135;42.602;23.468;2022-11-13T12:42:46;19.13;;;9.60;;
6203;SDS011;3135;42.602;23.468;2022-11-13T12:45:28;21.00;;;9.43;;
6203;SDS011;3135;42.602;23.468;2022-11-13T12:50:56;20.00;;;9.10;;
6203;SDS011;3135;42.602;23.468;2022-11-13T12:53:30;19.95;;;9.43;;
6203;SDS011;3135;42.602;23.468;2022-11-13T12:56:12;20.80;;;9.82;;
6203;SDS011;3135;42.602;23.468;2022-11-13T12:58:55;20.27;;;9.80;;
6203;SDS011;3135;42.602;23.468;2022-11-13T13:01:42;20.75;;;10.18;;
6203;SDS011;3135;42.602;23.468;2022-11-13T13:04:38;23.80;;;11.07;;
6203;SDS011;3135;42.602;23.468;2022-11-13T13:15:53;21.17;;;10.13;;
6203;SDS011;3135;42.602;23.468;2022-11-13T13:18:28;20.92;;;9.68;;
6203;SDS011;3135;42.602;23.468;2022-11-13T13:23:26;21.63;;;10.33;;
6203;SDS011;3135;42.602;23.468;2022-11-13T13:28:31;20.43;;;9.70;;
6203;SDS011;3135;42.602;23.468;2022-11-13T13:31:03;23.37;;;10.17;;
6203;SDS011;3135;42.602;23.468;2022-11-13T13:36:36;21.92;;;10.13;;
6203;SDS011;3135;42.602;23.468;2022-11-13T13:39:14;22.30;;;10.18;;
6203;SDS011;3135;42.602;23.468;2022-11-13T13:47:30;20.15;;;9.60;;
6203;SDS011;3135;42.602;23.468;2022-11-13T13:49:59;22.38;;;9.90;;
6203;SDS011;3135;42.602;23.468;2022-11-13T13:52:32;20.80;;;9.50;;
6203;SDS011;3135;42.602;23.468;2022-11-13T13:55:00;20.00;;;9.35;;
6203;SDS011;3135;42.602;23.468;2022-11-13T13:57:28;19.30;;;9.15;;
6203;SDS011;3135;42.602;23.468;2022-11-13T13:59:54;20.48;;;9.98;;
6203;SDS011;3135;42.602;23.468;2022-11-13T14:02:21;20.27;;;9.05;;
6203;SDS011;3135;42.602;23.468;2022-11-13T14:04:49;20.30;;;9.30;;
6203;SDS011;3135;42.602;23.468;2022-11-13T14:07:20;21.67;;;9.50;;
6203;SDS011;3135;42.602;23.468;2022-11-13T14:09:46;19.02;;;9.00;;
6203;SDS011;3135;42.602;23.468;2022-11-13T14:12:19;19.97;;;9.40;;
6203;SDS011;3135;42.602;23.468;2022-11-13T14:14:46;21.08;;;9.10;;
6203;SDS011;3135;42.602;23.468;2022-11-13T14:17:20;21.47;;;9.60;;
6203;SDS011;3135;42.602;23.468;2022-11-13T14:19:51;33.45;;;13.50;;
6203;SDS011;3135;42.602;23.468;2022-11-13T14:22:18;21.88;;;10.15;;
6203;SDS011;3135;42.602;23.468;2022-11-13T14:24:49;23.25;;;9.13;;
6203;SDS011;3135;42.602;23.468;2022-11-13T14:27:19;19.27;;;8.98;;
6203;SDS011;3135;42.602;23.468;2022-11-13T14:29:48;21.23;;;8.93;;
6203;SDS011;3135;42.602;23.468;2022-11-13T14:32:37;20.52;;;9.15;;
6203;SDS011;3135;42.602;23.468;2022-11-13T14:35:04;20.85;;;10.10;;
6203;SDS011;3135;42.602;23.468;2022-11-13T14:40:03;22.80;;;9.70;;
6203;SDS011;3135;42.602;23.468;2022-11-13T14:42:41;20.13;;;9.07;;
6203;SDS011;3135;42.602;23.468;2022-11-13T14:45:13;21.85;;;9.38;;
6203;SDS011;3135;42.602;23.468;2022-11-13T14:53:06;23.23;;;10.45;;
6203;SDS011;3135;42.602;23.468;2022-11-13T14:55:35;25.98;;;10.48;;
6203;SDS011;3135;42.602;23.468;2022-11-13T14:58:02;23.58;;;10.80;;
6203;SDS011;3135;42.602;23.468;2022-11-13T15:00:30;24.40;;;10.55;;
6203;SDS011;3135;42.602;23.468;2022-11-13T15:02:58;23.67;;;10.25;;
6203;SDS011;3135;42.602;23.468;2022-11-13T15:05:24;24.13;;;10.07;;
6203;SDS011;3135;42.602;23.468;2022-11-13T15:07:50;24.03;;;10.17;;
6203;SDS011;3135;42.602;23.468;2022-11-13T15:10:18;23.95;;;10.57;;
6203;SDS011;3135;42.602;23.468;2022-11-13T15:12:45;26.45;;;10.48;;
6203;SDS011;3135;42.602;23.468;2022-11-13T15:15:13;23.80;;;10.30;;
6203;SDS011;3135;42.602;23.468;2022-11-13T15:17:40;24.55;;;10.38;;
6203;SDS011;3135;42.602;23.468;2022-11-13T15:20:17;24.00;;;10.60;;
6203;SDS011;3135;42.602;23.468;2022-11-13T15:22:46;29.73;;;11.80;;
6203;SDS011;3135;42.602;23.468;2022-11-13T15:25:12;31.10;;;12.73;;
6203;SDS011;3135;42.602;23.468;2022-11-13T15:27:39;25.95;;;10.50;;
6203;SDS011;3135;42.602;23.468;2022-11-13T15:30:05;29.60;;;12.40;;
6203;SDS011;3135;42.602;23.468;2022-11-13T15:32:31;103.88;;;32.45;;
6203;SDS011;3135;42.602;23.468;2022-11-13T15:34:56;38.10;;;14.33;;
6203;SDS011;3135;42.602;23.468;2022-11-13T15:37:22;27.70;;;10.80;;
6203;SDS011;3135;42.602;23.468;2022-11-13T15:39:47;27.57;;;10.83;;
6203;SDS011;3135;42.602;23.468;2022-11-13T15:42:13;26.70;;;11.97;;
6203;SDS011;3135;42.602;23.468;2022-11-13T15:44:41;29.38;;;14.07;;
6203;SDS011;3135;42.602;23.468;2022-11-13T15:49:53;29.85;;;12.77;;
6203;SDS011;3135;42.602;23.468;2022-11-13T15:52:19;26.77;;;12.57;;
6203;SDS011;3135;42.602;23.468;2022-11-13T15:54:46;27.35;;;12.18;;
6203;SDS011;3135;42.602;23.468;2022-11-13T15:57:19;30.73;;;13.43;;
6203;SDS011;3135;42.602;23.468;2022-11-13T15:59:46;37.05;;;15.35;;
6203;SDS011;3135;42.602;23.468;2022-11-13T16:02:12;29.75;;;12.80;;
6203;SDS011;3135;42.602;23.468;2022-11-13T16:04:38;42.50;;;16.73;;
6203;SDS011;3135;42.602;23.468;2022-11-13T16:07:15;56.70;;;22.83;;
6203;SDS011;3135;42.602;23.468;2022-11-13T16:09:42;54.72;;;23.08;;
6203;SDS011;3135;42.602;23.468;2022-11-13T16:12:11;39.42;;;18.17;;
6203;SDS011;3135;42.602;23.468;2022-11-13T16:14:37;77.40;;;29.48;;
6203;SDS011;3135;42.602;23.468;2022-11-13T16:17:13;47.20;;;19.70;;
6203;SDS011;3135;42.602;23.468;2022-11-13T16:19:43;32.73;;;13.63;;
6203;SDS011;3135;42.602;23.468;2022-11-13T16:22:18;34.03;;;14.73;;
6203;SDS011;3135;42.602;23.468;2022-11-13T16:24:48;35.22;;;14.68;;
6203;SDS011;3135;42.602;23.468;2022-11-13T16:27:14;33.60;;;14.83;;
6203;SDS011;3135;42.602;23.468;2022-11-13T16:29:46;27.27;;;12.03;;